createdAt,value
2022-08-31T00:01:33.268Z,82.78
2022-08-31T00:04:06.590Z,82.62
2022-08-31T00:06:36.446Z,82.72
2022-08-31T00:09:07.015Z,82.67
2022-08-31T00:11:36.213Z,83.04
2022-08-31T00:14:13.118Z,83.08
2022-08-31T00:16:46.296Z,83.13
2022-08-31T00:19:15.034Z,83.25
2022-08-31T00:21:44.725Z,83.63
2022-08-31T00:24:14.331Z,83.73
2022-08-31T00:26:42.994Z,83.59
2022-08-31T00:29:12.382Z,84.05
2022-08-31T00:31:41.024Z,83.90
2022-08-31T00:34:10.726Z,84.15
2022-08-31T00:36:40.164Z,84.28
2022-08-31T00:39:08.983Z,84.54
2022-08-31T00:41:39.442Z,85.08
2022-08-31T00:44:11.101Z,85.08
2022-08-31T00:46:41.648Z,85.35
2022-08-31T00:49:14.665Z,85.34
2022-08-31T00:51:48.370Z,85.49
2022-08-31T00:54:21.491Z,85.91
2022-08-31T00:56:50.489Z,86.01
2022-08-31T00:59:21.561Z,86.38
2022-08-31T01:01:50.094Z,86.85
2022-08-31T01:04:20.116Z,87.30
2022-08-31T01:06:50.188Z,87.95
2022-08-31T01:09:20.913Z,88.66
2022-08-31T01:11:51.012Z,88.65
2022-08-31T01:14:19.801Z,89.45
2022-08-31T01:16:52.401Z,89.73
2022-08-31T01:19:29.806Z,90.64
2022-08-31T01:22:09.001Z,91.06
2022-08-31T01:24:42.933Z,91.76
2022-08-31T01:27:13.687Z,91.57
2022-08-31T01:29:42.131Z,92.13
2022-08-31T01:32:10.594Z,92.10
2022-08-31T01:34:39.002Z,92.86
2022-08-31T01:37:07.583Z,93.58
2022-08-31T01:39:35.970Z,93.71
2022-08-31T01:42:06.161Z,94.33
2022-08-31T01:44:35.066Z,94.97
2022-08-31T01:47:03.459Z,95.21
2022-08-31T01:49:31.929Z,95.36
2022-08-31T01:52:00.322Z,95.85
2022-08-31T01:54:28.773Z,96.36
2022-08-31T01:56:57.885Z,96.65
2022-08-31T01:59:50.966Z,97.54
2022-08-31T02:02:39.355Z,97.60
2022-08-31T02:05:11.992Z,98.17
2022-08-31T02:07:40.342Z,98.34
2022-08-31T02:10:09.761Z,99.22
2022-08-31T02:12:38.485Z,99.22
2022-08-31T02:15:11.487Z,100.00
2022-08-31T02:17:40.370Z,100.00
2022-08-31T02:20:11.534Z,100.00
2022-08-31T02:22:40.534Z,100.00
2022-08-31T02:25:12.033Z,100.00
2022-08-31T02:27:40.401Z,100.00
2022-08-31T02:30:15.524Z,100.00
2022-08-31T02:32:43.908Z,100.00
2022-08-31T02:35:12.864Z,100.00
2022-08-31T02:37:41.385Z,100.00
2022-08-31T02:40:12.241Z,100.00
2022-08-31T02:42:53.366Z,100.00
2022-08-31T02:45:26.884Z,100.00
2022-08-31T02:48:01.655Z,100.00
2022-08-31T02:50:39.682Z,100.00
2022-08-31T02:53:08.485Z,100.00
2022-08-31T02:55:37.143Z,100.00
2022-08-31T02:58:06.694Z,100.00
2022-08-31T03:00:36.905Z,100.00
2022-08-31T03:03:06.029Z,100.00
2022-08-31T03:05:34.486Z,100.00
2022-08-31T03:08:03.154Z,100.00
2022-08-31T03:10:32.042Z,100.00
2022-08-31T03:13:00.474Z,100.00
2022-08-31T03:15:29.805Z,100.00
2022-08-31T03:17:59.825Z,100.00
2022-08-31T03:20:29.565Z,100.00
2022-08-31T03:23:01.985Z,100.00
2022-08-31T03:25:32.500Z,100.00
2022-08-31T03:28:01.369Z,100.00
2022-08-31T03:30:31.519Z,100.00
2022-08-31T03:33:05.863Z,100.00
2022-08-31T03:35:35.789Z,100.00
2022-08-31T03:38:05.416Z,100.00
2022-08-31T03:40:34.314Z,100.00
2022-08-31T03:43:04.943Z,100.00
2022-08-31T03:45:33.502Z,100.00
2022-08-31T03:48:01.881Z,100.00
2022-08-31T03:50:32.068Z,100.00
2022-08-31T03:53:09.351Z,100.00
2022-08-31T03:55:40.436Z,100.00
2022-08-31T03:58:11.429Z,100.00
2022-08-31T04:00:40.222Z,100.00
2022-08-31T04:03:20.294Z,100.00
2022-08-31T04:06:19.355Z,100.00
2022-08-31T04:09:06.488Z,100.00
2022-08-31T04:11:57.690Z,100.00
2022-08-31T04:14:55.406Z,100.00
2022-08-31T04:17:46.954Z,100.00
2022-08-31T04:20:41.533Z,100.00
2022-08-31T04:23:11.355Z,100.00
2022-08-31T04:25:47.593Z,100.00
2022-08-31T04:28:15.958Z,100.00
2022-08-31T04:30:48.397Z,100.00
2022-08-31T04:33:18.608Z,100.00
2022-08-31T04:35:47.115Z,100.00
2022-08-31T04:38:16.870Z,100.00
2022-08-31T04:40:47.043Z,100.00
2022-08-31T04:43:15.542Z,100.00
2022-08-31T04:45:44.604Z,100.00
2022-08-31T04:48:14.934Z,100.00
2022-08-31T04:50:44.338Z,100.00
2022-08-31T04:53:13.081Z,100.00
2022-08-31T04:55:43.807Z,100.00
2022-08-31T04:58:15.210Z,100.00
2022-08-31T05:00:44.314Z,100.00
2022-08-31T05:03:12.716Z,100.00
2022-08-31T05:05:42.006Z,100.00
2022-08-31T05:08:10.423Z,100.00
2022-08-31T05:10:40.516Z,100.00
2022-08-31T05:13:10.305Z,100.00
2022-08-31T05:15:42.757Z,100.00
2022-08-31T05:18:14.045Z,100.00
2022-08-31T05:20:49.403Z,100.00
2022-08-31T05:23:18.629Z,100.00
2022-08-31T05:25:47.130Z,100.00
2022-08-31T05:28:23.432Z,100.00
2022-08-31T05:30:51.926Z,100.00
2022-08-31T05:33:32.759Z,100.00
2022-08-31T05:36:03.010Z,100.00
2022-08-31T05:38:31.506Z,100.00
2022-08-31T05:41:00.866Z,100.00
2022-08-31T05:43:30.720Z,100.00
2022-08-31T05:45:59.408Z,100.00
2022-08-31T05:48:33.486Z,100.00
2022-08-31T05:51:03.163Z,100.00
2022-08-31T05:53:32.050Z,100.00
2022-08-31T05:56:02.764Z,100.00
2022-08-31T05:58:34.342Z,100.00
2022-08-31T06:01:02.763Z,100.00
2022-08-31T06:03:51.080Z,100.00
2022-08-31T06:06:19.465Z,100.00
2022-08-31T06:08:47.887Z,100.00
2022-08-31T06:11:19.296Z,100.00
2022-08-31T06:13:52.463Z,100.00
2022-08-31T06:16:21.613Z,100.00
2022-08-31T06:18:50.888Z,100.00
2022-08-31T06:21:23.201Z,100.00
2022-08-31T06:23:53.692Z,100.00
2022-08-31T06:26:26.592Z,100.00
2022-08-31T06:28:59.875Z,100.00
2022-08-31T06:31:32.916Z,100.00
2022-08-31T06:34:02.775Z,100.00
2022-08-31T06:37:03.269Z,100.00
2022-08-31T06:39:34.899Z,100.00
2022-08-31T06:42:29.211Z,100.00
2022-08-31T06:45:14.351Z,100.00
2022-08-31T06:47:59.480Z,100.00
2022-08-31T06:50:29.017Z,100.00
2022-08-31T06:52:58.079Z,100.00
2022-08-31T06:55:39.741Z,100.00
2022-08-31T06:58:26.669Z,100.00
2022-08-31T07:01:32.613Z,100.00
2022-08-31T07:04:20.696Z,100.00
2022-08-31T07:06:49.079Z,100.00
2022-08-31T07:09:18.226Z,100.00
2022-08-31T07:11:49.629Z,100.00
2022-08-31T07:14:21.919Z,100.00
2022-08-31T07:16:53.786Z,100.00
2022-08-31T07:19:23.298Z,100.00
2022-08-31T07:21:54.476Z,100.00
2022-08-31T07:24:25.741Z,100.00
2022-08-31T07:26:57.925Z,100.00
2022-08-31T07:29:37.606Z,100.00
2022-08-31T07:32:08.401Z,100.00
2022-08-31T07:34:37.767Z,100.00
2022-08-31T07:37:41.141Z,100.00
2022-08-31T07:40:28.692Z,100.00
2022-08-31T07:42:57.808Z,100.00
2022-08-31T07:45:30.228Z,100.00
2022-08-31T07:48:02.088Z,100.00
2022-08-31T07:50:44.831Z,100.00
2022-08-31T07:53:28.823Z,100.00
2022-08-31T07:56:25.636Z,100.00
2022-08-31T07:59:11.199Z,100.00
2022-08-31T08:01:41.716Z,100.00
2022-08-31T08:04:18.444Z,100.00
2022-08-31T08:07:17.423Z,100.00
2022-08-31T08:10:14.995Z,100.00
2022-08-31T08:12:58.167Z,100.00
2022-08-31T08:15:37.317Z,100.00
2022-08-31T08:18:26.882Z,100.00
2022-08-31T08:21:00.957Z,100.00
2022-08-31T08:23:31.117Z,100.00
2022-08-31T08:26:21.301Z,100.00
2022-08-31T08:29:10.500Z,100.00
2022-08-31T08:31:43.723Z,100.00
2022-08-31T08:34:12.751Z,100.00
2022-08-31T08:36:42.685Z,100.00
2022-08-31T08:39:13.169Z,100.00
2022-08-31T08:41:47.662Z,100.00
2022-08-31T08:44:18.819Z,100.00
2022-08-31T08:46:54.801Z,100.00
2022-08-31T08:49:39.767Z,100.00
2022-08-31T08:52:17.068Z,100.00
2022-08-31T08:54:49.302Z,100.00
2022-08-31T08:57:21.830Z,100.00
2022-08-31T08:59:54.560Z,100.00
2022-08-31T09:02:30.747Z,100.00
2022-08-31T09:05:11.074Z,100.00
2022-08-31T09:08:19.997Z,100.00
2022-08-31T09:11:03.129Z,100.00
2022-08-31T09:13:39.262Z,100.00
2022-08-31T09:16:20.615Z,100.00
2022-08-31T09:18:53.795Z,100.00
2022-08-31T09:21:27.280Z,100.00
2022-08-31T09:24:03.464Z,100.00
2022-08-31T09:27:00.173Z,100.00
2022-08-31T09:29:45.031Z,100.00
2022-08-31T09:32:23.187Z,100.00
2022-08-31T09:34:58.976Z,100.00
2022-08-31T09:37:33.144Z,100.00
2022-08-31T09:40:15.730Z,100.00
2022-08-31T09:42:47.456Z,100.00
2022-08-31T09:45:38.704Z,100.00
2022-08-31T09:48:10.341Z,100.00
2022-08-31T09:50:44.201Z,100.00
2022-08-31T09:53:39.191Z,100.00
2022-08-31T09:56:15.433Z,100.00
2022-08-31T09:58:47.368Z,100.00
2022-08-31T10:01:20.519Z,100.00
2022-08-31T10:03:50.303Z,100.00
2022-08-31T10:06:43.984Z,100.00
2022-08-31T10:09:28.489Z,100.00
2022-08-31T10:12:04.226Z,100.00
2022-08-31T10:14:41.672Z,100.00
2022-08-31T10:17:16.401Z,100.00
2022-08-31T10:19:53.251Z,100.00
2022-08-31T10:22:31.215Z,100.00
2022-08-31T10:25:14.262Z,100.00
2022-08-31T10:27:49.654Z,100.00
2022-08-31T10:30:25.117Z,100.00
2022-08-31T10:32:58.831Z,100.00
2022-08-31T10:35:37.265Z,100.00
2022-08-31T10:38:21.123Z,100.00
2022-08-31T10:40:52.732Z,100.00
2022-08-31T10:43:25.520Z,100.00
2022-08-31T10:45:55.151Z,100.00
2022-08-31T10:48:26.239Z,100.00
2022-08-31T10:51:05.906Z,100.00
2022-08-31T10:53:47.178Z,100.00
2022-08-31T10:56:23.971Z,100.00
2022-08-31T10:59:03.410Z,100.00
2022-08-31T11:01:42.945Z,100.00
2022-08-31T11:04:29.777Z,100.00
2022-08-31T11:07:04.503Z,100.00
2022-08-31T11:09:43.295Z,100.00
2022-08-31T11:12:21.499Z,100.00
2022-08-31T11:15:28.414Z,100.00
2022-08-31T11:18:13.007Z,100.00
2022-08-31T11:21:04.292Z,100.00
2022-08-31T11:23:50.355Z,100.00
2022-08-31T11:26:52.863Z,100.00
2022-08-31T11:29:41.491Z,100.00
2022-08-31T11:32:21.100Z,100.00
2022-08-31T11:34:53.558Z,100.00
2022-08-31T11:37:52.123Z,100.00
2022-08-31T11:41:12.022Z,100.00
2022-08-31T11:43:46.951Z,100.00
2022-08-31T11:46:53.086Z,100.00
2022-08-31T11:49:47.836Z,100.00
2022-08-31T11:52:38.410Z,100.00
2022-08-31T11:55:23.186Z,100.00
2022-08-31T11:58:25.891Z,100.00
2022-08-31T12:01:02.804Z,100.00
2022-08-31T12:03:43.092Z,100.00
2022-08-31T12:06:51.265Z,100.00
2022-08-31T12:09:33.264Z,100.00
2022-08-31T12:12:11.574Z,100.00
2022-08-31T12:14:50.197Z,100.00
2022-08-31T12:17:27.043Z,100.00
2022-08-31T12:20:02.424Z,100.00
2022-08-31T12:23:24.428Z,100.00
2022-08-31T12:26:20.852Z,100.00
2022-08-31T12:29:05.457Z,100.00
2022-08-31T12:31:35.672Z,100.00
2022-08-31T12:34:10.864Z,100.00
2022-08-31T12:36:39.306Z,100.00
2022-08-31T12:39:10.719Z,100.00
2022-08-31T12:41:51.558Z,100.00
2022-08-31T12:44:22.466Z,100.00
2022-08-31T12:47:02.175Z,100.00
2022-08-31T12:49:50.565Z,100.00
2022-08-31T12:52:38.297Z,100.00
2022-08-31T12:55:23.492Z,100.00
2022-08-31T12:58:03.441Z,100.00
2022-08-31T13:00:35.092Z,100.00
2022-08-31T13:03:16.345Z,100.00
2022-08-31T13:06:00.936Z,100.00
2022-08-31T13:08:29.680Z,100.00
2022-08-31T13:11:14.353Z,100.00
2022-08-31T13:13:42.934Z,100.00
2022-08-31T13:16:13.789Z,100.00
2022-08-31T13:18:42.321Z,100.00
2022-08-31T13:21:11.015Z,100.00
2022-08-31T13:23:41.083Z,100.00
2022-08-31T13:26:19.166Z,100.00
2022-08-31T13:28:51.303Z,100.00
2022-08-31T13:31:22.788Z,100.00
2022-08-31T13:33:53.084Z,100.00
2022-08-31T13:36:31.937Z,100.00
2022-08-31T13:39:02.818Z,100.00
2022-08-31T13:41:36.393Z,100.00
2022-08-31T13:44:09.802Z,100.00
2022-08-31T13:46:44.610Z,100.00
2022-08-31T13:49:30.924Z,100.00
2022-08-31T13:52:00.081Z,100.00
2022-08-31T13:54:31.475Z,100.00
2022-08-31T13:57:19.552Z,100.00
2022-08-31T13:59:49.341Z,100.00
2022-08-31T14:02:36.985Z,100.00
2022-08-31T14:05:08.596Z,100.00
2022-08-31T14:07:56.285Z,100.00
2022-08-31T14:10:27.346Z,100.00
2022-08-31T14:12:59.912Z,100.00
2022-08-31T14:15:36.249Z,100.00
2022-08-31T14:18:27.967Z,100.00
2022-08-31T14:21:28.073Z,100.00
2022-08-31T14:24:01.083Z,100.00
2022-08-31T14:26:32.608Z,100.00
2022-08-31T14:29:10.398Z,100.00
2022-08-31T14:31:44.363Z,100.00
2022-08-31T14:34:25.300Z,97.89
2022-08-31T14:36:57.530Z,97.29
2022-08-31T14:39:31.190Z,97.17
2022-08-31T14:42:02.586Z,97.57
2022-08-31T14:44:37.521Z,96.60
2022-08-31T14:47:06.463Z,96.42
2022-08-31T14:49:36.598Z,96.23
2022-08-31T14:52:06.827Z,95.39
2022-08-31T14:54:36.977Z,95.40
2022-08-31T14:57:12.431Z,96.03
2022-08-31T14:59:46.667Z,96.30
2022-08-31T15:02:21.204Z,96.94
2022-08-31T15:04:50.293Z,96.55
2022-08-31T15:07:20.059Z,96.43
2022-08-31T15:09:50.295Z,95.60
2022-08-31T15:12:19.228Z,94.21
2022-08-31T15:14:49.792Z,94.10
2022-08-31T15:17:20.427Z,93.08
2022-08-31T15:19:55.123Z,93.22
2022-08-31T15:22:26.208Z,92.33
2022-08-31T15:24:56.084Z,93.55
2022-08-31T15:27:31.008Z,92.48
2022-08-31T15:30:08.038Z,93.69
2022-08-31T15:32:45.230Z,93.09
2022-08-31T15:35:18.077Z,93.46
2022-08-31T15:37:56.232Z,93.79
2022-08-31T15:40:25.733Z,92.11
2022-08-31T15:42:58.025Z,89.57
2022-08-31T15:45:30.657Z,90.93
2022-08-31T15:48:17.718Z,91.58
2022-08-31T15:50:52.522Z,90.50
2022-08-31T15:53:27.303Z,88.86
2022-08-31T15:55:56.396Z,89.23
2022-08-31T15:58:26.046Z,89.08
2022-08-31T16:00:55.964Z,88.89
2022-08-31T16:03:24.328Z,88.81
2022-08-31T16:05:54.095Z,88.19
2022-08-31T16:08:28.475Z,87.50
2022-08-31T16:10:56.951Z,86.75
2022-08-31T16:13:25.330Z,85.84
2022-08-31T16:15:55.062Z,85.58
2022-08-31T16:18:24.713Z,84.33
2022-08-31T16:20:53.076Z,84.31
2022-08-31T16:23:22.041Z,82.00
2022-08-31T16:25:50.466Z,80.32
2022-08-31T16:28:20.002Z,80.54
2022-08-31T16:30:48.928Z,80.50
2022-08-31T16:33:21.474Z,80.35
2022-08-31T16:35:50.153Z,79.47
2022-08-31T16:38:19.353Z,78.93
2022-08-31T16:40:47.826Z,79.51
2022-08-31T16:43:16.263Z,79.00
2022-08-31T16:45:44.729Z,77.94
2022-08-31T16:48:30.608Z,78.22
2022-08-31T16:51:01.986Z,77.74
2022-08-31T16:53:31.609Z,76.98
2022-08-31T16:56:00.446Z,77.80
2022-08-31T16:58:50.489Z,77.32
2022-08-31T17:01:20.699Z,76.09
2022-08-31T17:03:51.451Z,77.06
2022-08-31T17:06:21.149Z,75.41
2022-08-31T17:08:53.681Z,75.89
2022-08-31T17:11:24.775Z,74.82
2022-08-31T17:13:58.193Z,74.16
2022-08-31T17:16:28.593Z,74.71
2022-08-31T17:18:59.212Z,74.72
2022-08-31T17:21:31.595Z,74.06
2022-08-31T17:24:01.977Z,74.47
2022-08-31T17:26:33.622Z,73.81
2022-08-31T17:29:05.268Z,73.60
2022-08-31T17:31:36.656Z,73.94
2022-08-31T17:34:05.105Z,73.60
2022-08-31T17:36:37.550Z,73.55
2022-08-31T17:39:07.133Z,72.99
2022-08-31T17:41:36.183Z,73.20
2022-08-31T17:44:05.548Z,72.70
2022-08-31T17:46:33.971Z,72.38
2022-08-31T17:49:02.457Z,72.32
2022-08-31T17:51:36.085Z,72.04
2022-08-31T17:54:08.519Z,72.49
2022-08-31T17:56:47.415Z,72.09
2022-08-31T17:59:18.394Z,72.19
2022-08-31T18:01:48.796Z,71.99
2022-08-31T18:04:18.487Z,71.89
2022-08-31T18:06:51.573Z,72.20
2022-08-31T18:09:22.724Z,72.12
2022-08-31T18:11:52.601Z,72.30
2022-08-31T18:14:25.224Z,72.51
2022-08-31T18:16:55.470Z,72.39
2022-08-31T18:19:27.554Z,72.52
2022-08-31T18:21:58.181Z,72.20
2022-08-31T18:24:27.703Z,72.49
2022-08-31T18:26:58.007Z,72.42
2022-08-31T18:29:26.669Z,72.50
2022-08-31T18:31:56.720Z,72.73
2022-08-31T18:34:26.680Z,72.95
2022-08-31T18:36:55.435Z,72.85
2022-08-31T18:39:49.995Z,73.18
2022-08-31T18:42:33.008Z,73.17
2022-08-31T18:45:19.900Z,73.27
2022-08-31T18:48:20.720Z,73.30
2022-08-31T18:50:44.190Z,73.34
2022-08-31T18:53:15.466Z,73.48
2022-08-31T18:55:56.616Z,73.63
2022-08-31T18:58:24.946Z,73.87
2022-08-31T19:00:57.154Z,74.03
2022-08-31T19:03:27.309Z,74.22
2022-08-31T19:05:56.503Z,73.90
2022-08-31T19:08:25.336Z,74.18
2022-08-31T19:10:58.053Z,74.63
2022-08-31T19:13:30.309Z,74.41
2022-08-31T19:16:02.130Z,74.44
2022-08-31T19:18:32.170Z,74.47
2022-08-31T19:21:00.589Z,74.89
2022-08-31T19:23:29.313Z,74.57
2022-08-31T19:26:00.677Z,74.73
2022-08-31T19:28:29.074Z,74.86
2022-08-31T19:30:57.430Z,75.24
2022-08-31T19:33:26.839Z,75.41
2022-08-31T19:36:03.468Z,75.50
2022-08-31T19:38:33.015Z,75.47
2022-08-31T19:41:04.189Z,75.96
2022-08-31T19:43:56.107Z,75.95
2022-08-31T19:46:26.152Z,75.76
2022-08-31T19:48:59.736Z,75.43
2022-08-31T19:51:29.995Z,75.72
2022-08-31T19:53:59.156Z,75.78
2022-08-31T19:56:31.017Z,75.76
2022-08-31T19:59:00.290Z,75.63
2022-08-31T20:01:33.553Z,75.74
2022-08-31T20:04:04.102Z,75.74
2022-08-31T20:06:32.683Z,75.67
2022-08-31T20:09:01.270Z,75.61
2022-08-31T20:11:32.129Z,75.92
2022-08-31T20:14:01.383Z,75.81
2022-08-31T20:16:36.068Z,75.99
2022-08-31T20:19:05.913Z,75.81
2022-08-31T20:21:35.610Z,76.00
2022-08-31T20:24:07.629Z,76.29
2022-08-31T20:26:47.496Z,76.51
2022-08-31T20:29:21.077Z,76.33
2022-08-31T20:31:52.336Z,76.44
2022-08-31T20:34:23.266Z,76.57
2022-08-31T20:36:59.847Z,76.13
2022-08-31T20:39:31.139Z,76.45
2022-08-31T20:42:03.217Z,76.25
2022-08-31T20:44:35.495Z,76.31
2022-08-31T20:47:24.037Z,76.68
2022-08-31T20:49:55.724Z,76.33
2022-08-31T20:52:26.554Z,76.27
2022-08-31T20:55:00.680Z,76.72
2022-08-31T20:57:34.478Z,76.52
2022-08-31T21:00:04.944Z,76.64
2022-08-31T21:02:34.253Z,76.80
2022-08-31T21:05:34.362Z,76.67
2022-08-31T21:07:53.213Z,76.71
2022-08-31T21:10:37.972Z,76.90
2022-08-31T21:13:13.428Z,77.19
2022-08-31T21:15:44.199Z,77.13
2022-08-31T21:18:17.239Z,76.91
2022-08-31T21:20:46.320Z,77.15
2022-08-31T21:23:15.198Z,77.23
2022-08-31T21:25:45.333Z,76.92
2022-08-31T21:28:17.164Z,77.51
2022-08-31T21:30:47.093Z,77.56
2022-08-31T21:33:15.670Z,77.25
2022-08-31T21:35:44.035Z,77.61
2022-08-31T21:38:12.860Z,77.34
2022-08-31T21:40:48.155Z,77.55
2022-08-31T21:43:18.132Z,77.39
2022-08-31T21:45:46.652Z,77.54
2022-08-31T21:48:15.042Z,77.90
2022-08-31T21:50:43.961Z,77.93
2022-08-31T21:53:13.022Z,77.99
2022-08-31T21:55:41.411Z,77.73
2022-08-31T21:58:10.715Z,78.14
2022-08-31T22:00:42.099Z,78.33
2022-08-31T22:03:12.164Z,78.05
2022-08-31T22:05:43.449Z,78.23
2022-08-31T22:08:11.923Z,78.32
2022-08-31T22:10:41.901Z,78.47
2022-08-31T22:13:12.396Z,78.91
2022-08-31T22:15:43.297Z,78.80
2022-08-31T22:18:46.414Z,78.61
2022-08-31T22:21:00.462Z,79.30
2022-08-31T22:23:29.301Z,78.86
2022-08-31T22:25:58.017Z,79.21
2022-08-31T22:28:27.521Z,79.16
2022-08-31T22:30:57.322Z,78.94
2022-08-31T22:33:25.657Z,79.35
2022-08-31T22:35:54.558Z,79.22
2022-08-31T22:38:22.894Z,79.68
2022-08-31T22:40:51.802Z,79.74
2022-08-31T22:43:20.208Z,80.23
2022-08-31T22:45:49.457Z,80.33
2022-08-31T22:48:19.324Z,80.77
2022-08-31T22:50:47.871Z,81.02
2022-08-31T22:53:16.226Z,80.99
2022-08-31T22:55:44.624Z,80.92
2022-08-31T22:58:13.665Z,81.27
2022-08-31T23:00:45.372Z,81.03
2022-08-31T23:03:15.089Z,81.67
2022-08-31T23:05:45.006Z,81.75
2022-08-31T23:08:14.830Z,81.79
2022-08-31T23:10:44.456Z,81.69
2022-08-31T23:13:12.767Z,81.80
2022-08-31T23:15:41.368Z,82.10
2022-08-31T23:18:10.462Z,82.21
2022-08-31T23:20:41.026Z,82.39
2022-08-31T23:23:11.046Z,82.64
2022-08-31T23:25:40.903Z,83.03
2022-08-31T23:28:09.695Z,83.14
2022-08-31T23:30:40.160Z,83.60
2022-08-31T23:33:08.573Z,83.67
2022-08-31T23:35:37.214Z,83.67
2022-08-31T23:38:05.573Z,84.09
2022-08-31T23:40:35.336Z,84.44
2022-08-31T23:43:03.895Z,84.20
2022-08-31T23:45:33.237Z,84.61
2022-08-31T23:48:01.637Z,84.92
2022-08-31T23:50:30.063Z,85.26
2022-08-31T23:52:58.421Z,85.37
2022-08-31T23:55:29.001Z,85.54
2022-08-31T23:57:59.019Z,86.15
